AirNav   Air Wisconsin pilot careers
 
 1661 users online  

1H4 Greenville-Rainbow Airport
Greenville, New York, USA

GOING TO GREENVILLE?


FAA INFORMATION EFFECTIVE 29 MARCH 2018

Location

FAA Identifier: 1H4
Lat/Long: 42-25-00.2940N / 074-00-58.4760W
42-25.004900N / 074-00.974600W
42.4167483 / -74.0162433
(estimated)
Elevation: 840 ft. / 256 m (estimated)
Variation: 14W (1985)
From city: 1 mile E of GREENVILLE, NY
Time zone: UTC -4 (UTC -5 during Standard Time)
Zip code: 12083

Airport Operations

Airport use: Open to the public
Activation date: 06/1948
Control tower: no
ARTCC: BOSTON CENTER
FSS: BURLINGTON FLIGHT SERVICE STATION
NOTAMs facility: BTV (NOTAM-D service available)
Attendance: MAY-NOV DAYLIGHT HOURS
Wind indicator: yes
Segmented circle: no

Airport Communications

CTAF/UNICOM: 122.8
WX AWOS-3 at 1B1 (16 nm SE): 133.525 (518-828-2577)

Nearby radio navigation aids

VOR radial/distance  VOR name  Freq  Var
ALBr218/22.0ALBANY VORTAC115.3013W

 
NDB name  Hdg/Dist  Freq  Var  ID
PHILMONT320/16.327213WPFH .--. ..-. ....
HUNTER202/26.535614WHEU .... . ..-
GREAT BARRINGTON311/30.639514WGBR --. -... .-.
JOHNSTOWN172/37.652314WJJH .--- .--- ....

Airport Services

Parking: hangars and tiedowns
Airframe service: NONE
Powerplant service: NONE

Runway Information

Runway 17/35

Dimensions: 1801 x 75 ft. / 549 x 23 m
Surface: turf, in good condition
Runway edge markings: RY EDGES AND THLD MARKED BY WHITE MARKERS (1 FT SQ.)
RUNWAY 17  RUNWAY 35
Latitude: 42-25.330500N42-25.034000N
Longitude: 074-00.414000W074-00.413000W
Elevation: 840.0 ft.800.0 ft.
Gradient: 2.2% UP
Traffic pattern: leftleft
Runway heading: 194 magnetic, 180 true014 magnetic, 360 true
Displaced threshold: 112 ft.no
Markings: , in fair condition, in fair condition
Obstructions: 53 ft. trees, 32 ft. from runway, 92 ft. right of centerline
0:0 CONTROLLING OBSTRUCTION SLOPE TO DSPLCD THLD DUE TO +53 FT TREES 81 FT RIGHT.
43 ft. trees, 2 ft. from runway, 62 ft. left of centerline

Airport Ownership and Management from official FAA records

Ownership: Privately-owned
Owner: WALTER J BIRMANN
3822 CR 26
GREENVILLE, NY 12083
Phone 518-966-5343
Manager: WALTER J BIRMANN
3822 COUNTY ROUTE 26
GREENVILLE, NY 12083
Phone 518-966-5343

Airport Operational Statistics

Aircraft based on the field: 1
Single engine airplanes: 1
    
Aircraft operations: avg 30/month *
35% transient general aviation
35% local general aviation
21% commercial
8% military
* for 12-month period ending 09 September 2015

Additional Remarks

RY 17/35 MAY BE CLSD AFTER RAINS DUE TO WETNESS.
RY 17/35 SOFT & WET DURING MAR-JUN.
APT CLSD DEC 1 THRU APR 1.
+30 FT POWER LINE PARALLEL TO AND 150 FT WEST OF RY CNTRLN.

Instrument Procedures

There are no published instrument procedures at 1H4.

Some nearby airports with instrument procedures:

4B0 - South Albany Airport (12 nm NE)
1B1 - Columbia County Airport (16 nm SE)
KALB - Albany International Airport (22 nm NE)
20N - Kingston-Ulster Airport (26 nm S)
KSCH - Schenectady County Airport (26 nm N)
 
Loc | Ops | Rwys | IFR | FBO | Links
Com | Nav | Svcs | Stats | Notes

AirNav Hotels Sweepstakes
 
Area around 1H4 (Greenville-Rainbow Airport)
 
Road maps at: MapQuest Bing Google
 
Aerial photo
WARNING: Photo may not be current or correct
Aerial photo of 1H4 (Greenville-Rainbow Airport)
Do you have a better or more recent aerial photo of Greenville-Rainbow Airport that you would like to share? If so, please send us your photo.

 
Sectional chart

 
Airport distance calculator
Flying to Greenville-Rainbow Airport? Find the distance to fly.

From to 1H4

Sunrise and sunset
Times for 24-Apr-2018
 Local
(UTC-4)
 Zulu
(UTC)
Morning civil twilight05:3209:32
Sunrise06:0210:02
Sunset19:4623:46
Evening civil twilight20:1600:16

Current date and time
Zulu (UTC)  24-Apr-2018 15:07:43
Local (UTC-4)  24-Apr-2018 11:07:43
 
METAR
KALB 
22nm NE 
241451Z 18008KT 10SM FEW180 FEW220 SCT260 16/M02 A3035 RMK AO2 SLP277 SCT V BKN T01611017 58011
KSCH 
26nm N 
241445Z 12005KT 15SM CLR 16/00 A3035
KPSF 
32nm E 
241454Z AUTO 22006KT 10SM CLR 16/M06 A3034 RMK AO2 SLP262 T01561056 58013
KNY0 
38nm N 
241455Z AUTO 20006KT 10SM CLR 14/M04 A3032 RMK AO2
KAQW 
41nm NE 
241452Z AUTO 22009KT 10SM CLR 16/M05 A3035 RMK AO2 SLP279 T01611050 58014
KDDH 
44nm NE 
241454Z AUTO 19009KT 10SM CLR 18/M04 A3034 RMK AO2 SLP274 T01781039 58012
TAF
KALB 
22nm NE 
241138Z 2412/2512 17010KT P6SM BKN250 FM242100 17013G23KT P6SM BKN100 FM250100 17006KT P6SM VCSH OVC080 FM250400 VRB05KT 5SM -RA BR OVC035 FM250700 06004KT 3SM RA BR OVC020
NOTAMs
Click for the latest NOTAMs
NOTAMs are issued by the DoD/FAA and will open in a separate window not controlled by AirNav.

 

 
 

Would you like to see your business listed on this page?

 If your business provides an interesting product or service to pilots, flight crews, aircraft, or users of the Greenville-Rainbow Airport, you should consider listing it here.  To start the listing process, click on the button below
 
Add a business
 

Other Pages about Greenville-Rainbow Airport

Update a link
 
Copyright © AirNav, LLC. All rights reserved. Privacy Policy  Contact